Skip Navigation Links
NOAA logo - Click to go to the NOAA homepage
NOAA's National Weather Service
Alaska Aviation Weather Unit
  NWS logo - Click to go to the NWS homepage
Left Navbar Graphic     02 AKDT = 10 GMT

   
NOAA is celebrating 200 years of science, service, and stewardship. Visit the NOAA 200th celebration Web site to learn more.
USA.gov is the U.S. Government's official Web portal to all Federal, state and local government Web resources and services.
Facebook
NWS on Facebook

AAWU Home :: Display TAF Add Bookmark
TAF PAQT 270520Z 2706/2806 24012KT P6SM OVC040
     FM271600 19007KT P6SM BKN040 OVC100=
PAQT 270453Z AUTO 24012KT 10SM OVC040 M22/M24 A3012 RMK SLP199
     T12221239 TSNO VIA AUTODIAL=

PAQT 270528Z AUTO 24010KT 10SM BKN025 OVC041 M23/M25 A3012=

PAQT 270551Z AUTO 25010KT 10SM SCT025 OVC041 M23/M25 A3012=

METAR PAQT 270553Z AUTO 25010KT 10SM SCT025 OVC041 M23/M25 A3012 RMK
     SLP202 T12331250 11211 21233 53007 TSNO VIA AUTODIAL=

PAQT 270637Z AUTO 25011KT 10SM BKN025 OVC040 M23/M25 A3013=

METAR PAQT 270653Z AUTO 25009KT 8SM OVC023 M23/M25 A3013 RMK SLP205
     T12331250 TSNO VIA AUTODIAL=

METAR PAQT 270753Z AUTO 25008KT 6SM BR OVC023 M23/M25 A3014 RMK SLP209
     T12331250 TSNO VIA AUTODIAL=

METAR PAQT 270853Z AUTO 25007KT 7SM OVC022 M24/M26 A3015 RMK SLP212
     T12391256 412111289 52010 TSNO VIA AUTODIAL=

METAR PAQT 270953Z AUTO 20005KT 7SM OVC022 M26/M27 A3016 RMK SLP213
     T12561272 TSNO VIA AUTODIAL=


NOAA's National Weather Service
Alaska Aviation Weather Unit
6930 Sand Lake Road
Anchorage, AK 99502-1845
Disclaimer
Credits
Glossary
Privacy Policy
About Us
Career Opportunities
Contact AAWU Internet Services Site last modified: April, 17th 2012